sensor_id;sensor_type;location;lat;lon;timestamp;P1;durP1;ratioP1;P2;durP2;ratioP2
20078;SDS011;10199;48.850;8.924;2024-02-21T00:28:59;7.87;;;3.63;;
20078;SDS011;10199;48.850;8.924;2024-02-21T01:00:51;6.67;;;3.47;;
20078;SDS011;10199;48.850;8.924;2024-02-21T01:12:53;6.27;;;3.50;;
20078;SDS011;10199;48.850;8.924;2024-02-21T01:17:13;6.90;;;3.43;;
20078;SDS011;10199;48.850;8.924;2024-02-21T01:38:00;7.07;;;3.40;;
20078;SDS011;10199;48.850;8.924;2024-02-21T01:41:18;12.33;;;3.53;;
20078;SDS011;10199;48.850;8.924;2024-02-21T02:02:12;6.87;;;2.90;;
20078;SDS011;10199;48.850;8.924;2024-02-21T02:05:32;8.07;;;3.03;;
20078;SDS011;10199;48.850;8.924;2024-02-21T02:08:28;6.30;;;2.90;;
20078;SDS011;10199;48.850;8.924;2024-02-21T02:30:03;7.40;;;2.70;;
20078;SDS011;10199;48.850;8.924;2024-02-21T03:42:42;6.60;;;2.90;;
20078;SDS011;10199;48.850;8.924;2024-02-21T05:38:54;6.43;;;3.33;;
20078;SDS011;10199;48.850;8.924;2024-02-21T05:45:50;9.70;;;2.87;;
20078;SDS011;10199;48.850;8.924;2024-02-21T06:02:25;4.30;;;2.47;;
20078;SDS011;10199;48.850;8.924;2024-02-21T06:05:13;6.20;;;2.70;;
20078;SDS011;10199;48.850;8.924;2024-02-21T06:08:14;7.80;;;2.93;;
20078;SDS011;10199;48.850;8.924;2024-02-21T06:11:07;6.83;;;3.00;;
20078;SDS011;10199;48.850;8.924;2024-02-21T06:13:55;7.13;;;2.83;;
20078;SDS011;10199;48.850;8.924;2024-02-21T06:16:43;9.27;;;3.50;;
20078;SDS011;10199;48.850;8.924;2024-02-21T06:19:33;9.00;;;2.83;;
20078;SDS011;10199;48.850;8.924;2024-02-21T06:22:21;5.73;;;3.00;;
20078;SDS011;10199;48.850;8.924;2024-02-21T06:25:16;6.70;;;2.70;;
20078;SDS011;10199;48.850;8.924;2024-02-21T06:28:05;7.97;;;3.87;;
20078;SDS011;10199;48.850;8.924;2024-02-21T06:30:53;9.27;;;3.63;;
20078;SDS011;10199;48.850;8.924;2024-02-21T06:33:42;8.57;;;5.70;;
20078;SDS011;10199;48.850;8.924;2024-02-21T06:36:34;12.17;;;8.03;;
20078;SDS011;10199;48.850;8.924;2024-02-21T06:39:22;12.43;;;6.50;;
20078;SDS011;10199;48.850;8.924;2024-02-21T06:42:13;7.70;;;3.77;;
20078;SDS011;10199;48.850;8.924;2024-02-21T06:45:01;17.73;;;13.70;;
20078;SDS011;10199;48.850;8.924;2024-02-21T06:47:49;7.13;;;4.13;;
20078;SDS011;10199;48.850;8.924;2024-02-21T06:50:37;7.77;;;3.27;;
20078;SDS011;10199;48.850;8.924;2024-02-21T06:53:28;6.40;;;3.20;;
20078;SDS011;10199;48.850;8.924;2024-02-21T06:56:17;6.30;;;3.27;;
20078;SDS011;10199;48.850;8.924;2024-02-21T06:59:05;9.43;;;3.53;;
20078;SDS011;10199;48.850;8.924;2024-02-21T07:01:54;10.80;;;3.30;;
20078;SDS011;10199;48.850;8.924;2024-02-21T07:04:43;5.37;;;3.67;;
20078;SDS011;10199;48.850;8.924;2024-02-21T07:07:31;7.50;;;3.37;;
20078;SDS011;10199;48.850;8.924;2024-02-21T07:10:23;7.03;;;3.57;;
20078;SDS011;10199;48.850;8.924;2024-02-21T07:13:11;4.13;;;2.83;;
20078;SDS011;10199;48.850;8.924;2024-02-21T07:16:00;5.40;;;2.87;;
20078;SDS011;10199;48.850;8.924;2024-02-21T07:18:48;6.73;;;2.87;;
20078;SDS011;10199;48.850;8.924;2024-02-21T07:21:37;6.47;;;3.17;;
20078;SDS011;10199;48.850;8.924;2024-02-21T07:24:28;5.77;;;2.67;;
20078;SDS011;10199;48.850;8.924;2024-02-21T07:27:18;6.53;;;2.80;;
20078;SDS011;10199;48.850;8.924;2024-02-21T07:30:06;5.87;;;2.43;;
20078;SDS011;10199;48.850;8.924;2024-02-21T07:32:55;6.80;;;2.87;;
20078;SDS011;10199;48.850;8.924;2024-02-21T07:35:44;5.33;;;2.40;;
20078;SDS011;10199;48.850;8.924;2024-02-21T07:38:32;8.20;;;2.40;;
20078;SDS011;10199;48.850;8.924;2024-02-21T07:41:21;6.83;;;2.07;;
20078;SDS011;10199;48.850;8.924;2024-02-21T07:44:10;6.03;;;2.57;;
20078;SDS011;10199;48.850;8.924;2024-02-21T07:47:01;6.50;;;2.30;;
20078;SDS011;10199;48.850;8.924;2024-02-21T07:49:49;5.53;;;2.03;;
20078;SDS011;10199;48.850;8.924;2024-02-21T07:52:43;6.10;;;2.00;;
20078;SDS011;10199;48.850;8.924;2024-02-21T07:55:32;5.70;;;2.17;;
20078;SDS011;10199;48.850;8.924;2024-02-21T07:58:23;5.03;;;2.13;;
20078;SDS011;10199;48.850;8.924;2024-02-21T08:01:17;5.67;;;2.20;;
20078;SDS011;10199;48.850;8.924;2024-02-21T08:04:15;3.23;;;2.03;;
20078;SDS011;10199;48.850;8.924;2024-02-21T08:10:09;3.47;;;2.00;;
20078;SDS011;10199;48.850;8.924;2024-02-21T08:12:57;5.20;;;1.80;;
20078;SDS011;10199;48.850;8.924;2024-02-21T08:15:45;7.33;;;2.40;;
20078;SDS011;10199;48.850;8.924;2024-02-21T08:18:35;5.40;;;2.30;;
20078;SDS011;10199;48.850;8.924;2024-02-21T08:21:31;8.43;;;2.37;;
20078;SDS011;10199;48.850;8.924;2024-02-21T08:24:29;5.43;;;2.57;;
20078;SDS011;10199;48.850;8.924;2024-02-21T08:27:17;4.20;;;2.10;;
20078;SDS011;10199;48.850;8.924;2024-02-21T08:30:06;4.67;;;2.03;;
20078;SDS011;10199;48.850;8.924;2024-02-21T08:32:54;6.67;;;2.60;;
20078;SDS011;10199;48.850;8.924;2024-02-21T08:35:44;5.37;;;2.27;;
20078;SDS011;10199;48.850;8.924;2024-02-21T08:38:33;8.07;;;2.10;;
20078;SDS011;10199;48.850;8.924;2024-02-21T08:41:21;4.00;;;1.83;;
20078;SDS011;10199;48.850;8.924;2024-02-21T08:44:22;5.90;;;1.90;;
20078;SDS011;10199;48.850;8.924;2024-02-21T08:47:10;5.23;;;1.83;;
20078;SDS011;10199;48.850;8.924;2024-02-21T08:49:59;6.10;;;2.33;;
20078;SDS011;10199;48.850;8.924;2024-02-21T08:52:52;6.97;;;1.97;;
20078;SDS011;10199;48.850;8.924;2024-02-21T08:55:41;5.43;;;1.90;;
20078;SDS011;10199;48.850;8.924;2024-02-21T08:58:33;3.40;;;1.50;;
20078;SDS011;10199;48.850;8.924;2024-02-21T09:01:22;5.83;;;2.00;;
20078;SDS011;10199;48.850;8.924;2024-02-21T09:04:13;9.57;;;2.87;;
20078;SDS011;10199;48.850;8.924;2024-02-21T09:07:02;5.87;;;2.50;;
20078;SDS011;10199;48.850;8.924;2024-02-21T09:09:51;5.17;;;2.43;;
20078;SDS011;10199;48.850;8.924;2024-02-21T09:12:40;5.00;;;2.00;;
20078;SDS011;10199;48.850;8.924;2024-02-21T09:15:28;4.67;;;2.57;;
20078;SDS011;10199;48.850;8.924;2024-02-21T09:18:18;3.53;;;1.73;;
20078;SDS011;10199;48.850;8.924;2024-02-21T09:21:06;4.93;;;2.13;;
20078;SDS011;10199;48.850;8.924;2024-02-21T09:23:59;4.33;;;2.10;;
20078;SDS011;10199;48.850;8.924;2024-02-21T09:26:49;4.67;;;1.70;;
20078;SDS011;10199;48.850;8.924;2024-02-21T09:29:37;4.67;;;1.70;;
20078;SDS011;10199;48.850;8.924;2024-02-21T09:32:26;5.10;;;2.00;;
20078;SDS011;10199;48.850;8.924;2024-02-21T09:35:14;9.37;;;1.90;;
20078;SDS011;10199;48.850;8.924;2024-02-21T09:38:03;5.00;;;1.87;;
20078;SDS011;10199;48.850;8.924;2024-02-21T09:40:53;5.27;;;2.10;;
20078;SDS011;10199;48.850;8.924;2024-02-21T09:43:49;4.63;;;2.20;;
20078;SDS011;10199;48.850;8.924;2024-02-21T09:46:42;5.77;;;2.67;;
20078;SDS011;10199;48.850;8.924;2024-02-21T09:53:12;3.47;;;1.77;;
20078;SDS011;10199;48.850;8.924;2024-02-21T09:56:10;4.40;;;1.60;;
20078;SDS011;10199;48.850;8.924;2024-02-21T09:59:06;4.43;;;1.50;;
20078;SDS011;10199;48.850;8.924;2024-02-21T10:01:55;3.20;;;1.80;;
20078;SDS011;10199;48.850;8.924;2024-02-21T10:04:43;2.23;;;1.70;;
20078;SDS011;10199;48.850;8.924;2024-02-21T10:07:31;2.90;;;1.70;;
20078;SDS011;10199;48.850;8.924;2024-02-21T10:10:40;6.97;;;2.07;;
20078;SDS011;10199;48.850;8.924;2024-02-21T10:14:03;3.23;;;1.90;;
20078;SDS011;10199;48.850;8.924;2024-02-21T10:17:29;5.37;;;1.80;;
20078;SDS011;10199;48.850;8.924;2024-02-21T10:20:18;4.17;;;1.57;;
20078;SDS011;10199;48.850;8.924;2024-02-21T10:23:06;4.70;;;1.80;;
20078;SDS011;10199;48.850;8.924;2024-02-21T10:26:22;5.27;;;1.87;;
20078;SDS011;10199;48.850;8.924;2024-02-21T10:29:11;3.17;;;1.40;;
20078;SDS011;10199;48.850;8.924;2024-02-21T10:32:06;3.17;;;1.40;;
20078;SDS011;10199;48.850;8.924;2024-02-21T10:35:00;3.90;;;1.43;;
20078;SDS011;10199;48.850;8.924;2024-02-21T10:38:19;3.60;;;1.60;;
20078;SDS011;10199;48.850;8.924;2024-02-21T10:41:07;4.33;;;1.53;;
20078;SDS011;10199;48.850;8.924;2024-02-21T10:44:02;3.33;;;1.30;;
20078;SDS011;10199;48.850;8.924;2024-02-21T10:46:55;4.97;;;1.43;;
20078;SDS011;10199;48.850;8.924;2024-02-21T10:49:49;4.13;;;1.73;;
20078;SDS011;10199;48.850;8.924;2024-02-21T10:52:46;6.17;;;1.67;;
20078;SDS011;10199;48.850;8.924;2024-02-21T10:55:41;4.03;;;1.13;;
20078;SDS011;10199;48.850;8.924;2024-02-21T10:58:39;7.33;;;2.00;;
20078;SDS011;10199;48.850;8.924;2024-02-21T11:01:29;5.10;;;1.57;;
20078;SDS011;10199;48.850;8.924;2024-02-21T11:04:20;6.10;;;1.80;;
20078;SDS011;10199;48.850;8.924;2024-02-21T11:07:09;4.40;;;1.60;;
20078;SDS011;10199;48.850;8.924;2024-02-21T11:10:02;2.97;;;2.00;;
20078;SDS011;10199;48.850;8.924;2024-02-21T11:12:54;3.77;;;1.40;;
20078;SDS011;10199;48.850;8.924;2024-02-21T11:15:54;4.63;;;1.50;;
20078;SDS011;10199;48.850;8.924;2024-02-21T11:18:42;4.20;;;1.50;;
20078;SDS011;10199;48.850;8.924;2024-02-21T11:26:05;4.57;;;1.30;;
20078;SDS011;10199;48.850;8.924;2024-02-21T11:32:43;4.83;;;1.50;;
20078;SDS011;10199;48.850;8.924;2024-02-21T11:35:33;3.57;;;1.50;;
20078;SDS011;10199;48.850;8.924;2024-02-21T11:38:23;5.03;;;1.60;;
20078;SDS011;10199;48.850;8.924;2024-02-21T11:41:16;4.47;;;1.60;;
20078;SDS011;10199;48.850;8.924;2024-02-21T11:44:08;3.87;;;1.77;;
20078;SDS011;10199;48.850;8.924;2024-02-21T11:46:57;3.60;;;1.20;;
20078;SDS011;10199;48.850;8.924;2024-02-21T11:49:46;2.03;;;1.33;;
20078;SDS011;10199;48.850;8.924;2024-02-21T11:52:40;2.13;;;1.10;;
20078;SDS011;10199;48.850;8.924;2024-02-21T11:55:29;5.53;;;1.50;;
20078;SDS011;10199;48.850;8.924;2024-02-21T11:58:18;16.77;;;6.90;;
20078;SDS011;10199;48.850;8.924;2024-02-21T12:01:22;6.50;;;3.43;;
20078;SDS011;10199;48.850;8.924;2024-02-21T12:04:11;2.97;;;1.50;;
20078;SDS011;10199;48.850;8.924;2024-02-21T12:06:59;4.60;;;1.77;;
20078;SDS011;10199;48.850;8.924;2024-02-21T12:09:50;4.73;;;1.47;;
20078;SDS011;10199;48.850;8.924;2024-02-21T12:12:39;2.10;;;1.10;;
20078;SDS011;10199;48.850;8.924;2024-02-21T12:15:29;4.27;;;1.70;;
20078;SDS011;10199;48.850;8.924;2024-02-21T12:18:19;4.60;;;1.87;;
20078;SDS011;10199;48.850;8.924;2024-02-21T12:21:44;3.97;;;1.37;;
20078;SDS011;10199;48.850;8.924;2024-02-21T12:24:49;4.33;;;2.03;;
20078;SDS011;10199;48.850;8.924;2024-02-21T12:27:43;3.17;;;1.47;;
20078;SDS011;10199;48.850;8.924;2024-02-21T12:34:37;3.37;;;1.90;;
20078;SDS011;10199;48.850;8.924;2024-02-21T12:37:29;3.90;;;1.50;;
20078;SDS011;10199;48.850;8.924;2024-02-21T12:40:18;3.80;;;1.67;;
20078;SDS011;10199;48.850;8.924;2024-02-21T12:43:06;3.03;;;1.10;;
20078;SDS011;10199;48.850;8.924;2024-02-21T12:45:55;3.17;;;1.27;;
20078;SDS011;10199;48.850;8.924;2024-02-21T12:48:43;2.63;;;1.10;;
20078;SDS011;10199;48.850;8.924;2024-02-21T12:51:33;3.90;;;1.37;;
20078;SDS011;10199;48.850;8.924;2024-02-21T12:54:26;4.90;;;1.40;;
20078;SDS011;10199;48.850;8.924;2024-02-21T12:57:29;4.50;;;1.90;;
20078;SDS011;10199;48.850;8.924;2024-02-21T13:00:18;2.17;;;1.23;;
20078;SDS011;10199;48.850;8.924;2024-02-21T13:03:07;5.53;;;1.30;;
20078;SDS011;10199;48.850;8.924;2024-02-21T13:05:56;3.40;;;1.10;;
20078;SDS011;10199;48.850;8.924;2024-02-21T13:08:47;1.73;;;0.70;;
20078;SDS011;10199;48.850;8.924;2024-02-21T13:11:35;6.63;;;1.33;;
20078;SDS011;10199;48.850;8.924;2024-02-21T13:14:31;2.70;;;1.17;;
20078;SDS011;10199;48.850;8.924;2024-02-21T13:17:30;2.83;;;1.30;;
20078;SDS011;10199;48.850;8.924;2024-02-21T13:20:19;4.17;;;1.30;;
20078;SDS011;10199;48.850;8.924;2024-02-21T13:23:07;3.73;;;1.13;;
20078;SDS011;10199;48.850;8.924;2024-02-21T13:26:10;2.97;;;1.33;;
20078;SDS011;10199;48.850;8.924;2024-02-21T13:28:59;4.23;;;1.20;;
20078;SDS011;10199;48.850;8.924;2024-02-21T13:31:49;3.77;;;0.80;;
20078;SDS011;10199;48.850;8.924;2024-02-21T13:34:38;3.40;;;1.17;;
20078;SDS011;10199;48.850;8.924;2024-02-21T13:38:54;1.70;;;0.90;;
20078;SDS011;10199;48.850;8.924;2024-02-21T13:41:43;3.73;;;1.57;;
20078;SDS011;10199;48.850;8.924;2024-02-21T13:45:45;5.93;;;1.70;;
20078;SDS011;10199;48.850;8.924;2024-02-21T13:48:30;5.00;;;1.80;;
20078;SDS011;10199;48.850;8.924;2024-02-21T13:55:22;4.17;;;2.00;;
20078;SDS011;10199;48.850;8.924;2024-02-21T13:58:14;6.47;;;1.60;;
20078;SDS011;10199;48.850;8.924;2024-02-21T14:05:31;4.03;;;1.30;;
20078;SDS011;10199;48.850;8.924;2024-02-21T14:08:25;5.17;;;1.70;;
20078;SDS011;10199;48.850;8.924;2024-02-21T14:17:26;4.57;;;1.90;;
20078;SDS011;10199;48.850;8.924;2024-02-21T14:21:45;4.17;;;2.00;;
20078;SDS011;10199;48.850;8.924;2024-02-21T14:24:33;5.60;;;2.27;;
20078;SDS011;10199;48.850;8.924;2024-02-21T14:27:22;6.60;;;1.93;;
20078;SDS011;10199;48.850;8.924;2024-02-21T14:30:10;7.50;;;2.13;;
20078;SDS011;10199;48.850;8.924;2024-02-21T14:36:17;4.00;;;1.70;;
20078;SDS011;10199;48.850;8.924;2024-02-21T14:39:06;5.50;;;2.30;;
20078;SDS011;10199;48.850;8.924;2024-02-21T14:43:20;5.40;;;2.40;;
20078;SDS011;10199;48.850;8.924;2024-02-21T14:46:12;6.33;;;2.33;;
20078;SDS011;10199;48.850;8.924;2024-02-21T14:53:13;4.43;;;2.20;;
20078;SDS011;10199;48.850;8.924;2024-02-21T14:56:13;6.77;;;2.40;;
20078;SDS011;10199;48.850;8.924;2024-02-21T15:00:17;7.17;;;2.27;;
20078;SDS011;10199;48.850;8.924;2024-02-21T15:05:20;5.87;;;2.20;;
20078;SDS011;10199;48.850;8.924;2024-02-21T15:07:07;5.17;;;2.33;;
20078;SDS011;10199;48.850;8.924;2024-02-21T15:15:40;4.73;;;2.13;;
20078;SDS011;10199;48.850;8.924;2024-02-21T15:18:47;6.67;;;2.60;;
20078;SDS011;10199;48.850;8.924;2024-02-21T15:23:11;7.33;;;2.40;;
20078;SDS011;10199;48.850;8.924;2024-02-21T15:25:59;5.10;;;2.20;;
20078;SDS011;10199;48.850;8.924;2024-02-21T15:28:51;5.57;;;2.70;;
20078;SDS011;10199;48.850;8.924;2024-02-21T15:31:43;7.27;;;3.53;;
20078;SDS011;10199;48.850;8.924;2024-02-21T15:34:33;7.50;;;3.33;;
20078;SDS011;10199;48.850;8.924;2024-02-21T15:37:22;8.13;;;4.07;;
20078;SDS011;10199;48.850;8.924;2024-02-21T15:40:12;8.47;;;2.93;;
20078;SDS011;10199;48.850;8.924;2024-02-21T15:43:14;3.60;;;2.20;;
20078;SDS011;10199;48.850;8.924;2024-02-21T15:46:04;5.73;;;2.00;;
20078;SDS011;10199;48.850;8.924;2024-02-21T15:48:54;4.13;;;1.90;;
20078;SDS011;10199;48.850;8.924;2024-02-21T15:51:42;5.80;;;2.20;;
20078;SDS011;10199;48.850;8.924;2024-02-21T15:54:30;4.73;;;1.60;;
20078;SDS011;10199;48.850;8.924;2024-02-21T15:57:21;5.50;;;2.17;;
20078;SDS011;10199;48.850;8.924;2024-02-21T16:00:10;3.30;;;1.47;;
20078;SDS011;10199;48.850;8.924;2024-02-21T16:03:02;3.43;;;1.40;;
20078;SDS011;10199;48.850;8.924;2024-02-21T16:06:11;3.60;;;1.67;;
20078;SDS011;10199;48.850;8.924;2024-02-21T16:09:00;1.87;;;0.90;;
20078;SDS011;10199;48.850;8.924;2024-02-21T16:11:51;1.60;;;0.83;;
20078;SDS011;10199;48.850;8.924;2024-02-21T16:14:39;2.20;;;1.30;;
20078;SDS011;10199;48.850;8.924;2024-02-21T16:17:43;2.27;;;1.40;;
20078;SDS011;10199;48.850;8.924;2024-02-21T16:20:36;1.70;;;1.20;;
20078;SDS011;10199;48.850;8.924;2024-02-21T16:23:58;2.77;;;1.30;;
20078;SDS011;10199;48.850;8.924;2024-02-21T16:26:46;1.70;;;1.00;;
20078;SDS011;10199;48.850;8.924;2024-02-21T16:29:35;2.47;;;1.60;;
20078;SDS011;10199;48.850;8.924;2024-02-21T16:32:27;1.53;;;1.13;;
20078;SDS011;10199;48.850;8.924;2024-02-21T16:35:15;2.50;;;1.30;;
20078;SDS011;10199;48.850;8.924;2024-02-21T16:38:06;1.13;;;0.87;;
20078;SDS011;10199;48.850;8.924;2024-02-21T16:41:25;2.37;;;1.20;;
20078;SDS011;10199;48.850;8.924;2024-02-21T16:44:14;1.30;;;1.03;;
20078;SDS011;10199;48.850;8.924;2024-02-21T16:47:04;2.40;;;1.20;;
20078;SDS011;10199;48.850;8.924;2024-02-21T16:49:56;3.17;;;1.70;;
20078;SDS011;10199;48.850;8.924;2024-02-21T16:52:52;4.23;;;2.57;;
20078;SDS011;10199;48.850;8.924;2024-02-21T16:55:54;7.57;;;1.90;;
20078;SDS011;10199;48.850;8.924;2024-02-21T16:58:44;2.17;;;1.27;;
20078;SDS011;10199;48.850;8.924;2024-02-21T17:01:35;2.33;;;1.50;;
20078;SDS011;10199;48.850;8.924;2024-02-21T17:04:25;1.87;;;1.40;;
20078;SDS011;10199;48.850;8.924;2024-02-21T17:07:14;3.03;;;1.50;;
20078;SDS011;10199;48.850;8.924;2024-02-21T17:10:03;5.57;;;3.47;;
20078;SDS011;10199;48.850;8.924;2024-02-21T17:12:52;4.57;;;2.07;;
20078;SDS011;10199;48.850;8.924;2024-02-21T17:15:43;2.50;;;1.60;;
20078;SDS011;10199;48.850;8.924;2024-02-21T17:18:31;3.50;;;2.87;;
20078;SDS011;10199;48.850;8.924;2024-02-21T17:21:19;2.60;;;1.60;;
20078;SDS011;10199;48.850;8.924;2024-02-21T17:24:08;4.57;;;2.73;;
20078;SDS011;10199;48.850;8.924;2024-02-21T17:26:56;3.07;;;1.93;;
20078;SDS011;10199;48.850;8.924;2024-02-21T17:29:45;2.80;;;1.90;;
20078;SDS011;10199;48.850;8.924;2024-02-21T17:32:35;6.87;;;3.80;;
20078;SDS011;10199;48.850;8.924;2024-02-21T17:35:23;9.43;;;3.30;;
20078;SDS011;10199;48.850;8.924;2024-02-21T17:38:11;12.37;;;5.00;;
20078;SDS011;10199;48.850;8.924;2024-02-21T17:40:59;8.00;;;5.43;;
20078;SDS011;10199;48.850;8.924;2024-02-21T17:43:54;7.50;;;2.33;;
20078;SDS011;10199;48.850;8.924;2024-02-21T17:46:42;3.83;;;2.23;;
20078;SDS011;10199;48.850;8.924;2024-02-21T17:49:32;6.17;;;2.40;;
20078;SDS011;10199;48.850;8.924;2024-02-21T17:52:21;5.07;;;2.70;;
20078;SDS011;10199;48.850;8.924;2024-02-21T17:55:09;5.13;;;2.63;;
20078;SDS011;10199;48.850;8.924;2024-02-21T17:57:59;4.40;;;2.40;;
20078;SDS011;10199;48.850;8.924;2024-02-21T18:00:47;4.53;;;2.70;;
20078;SDS011;10199;48.850;8.924;2024-02-21T18:03:35;4.53;;;2.60;;
20078;SDS011;10199;48.850;8.924;2024-02-21T18:06:25;5.30;;;3.23;;
20078;SDS011;10199;48.850;8.924;2024-02-21T18:09:13;3.47;;;2.70;;
20078;SDS011;10199;48.850;8.924;2024-02-21T18:12:01;4.73;;;2.73;;
20078;SDS011;10199;48.850;8.924;2024-02-21T18:14:52;6.23;;;4.57;;
20078;SDS011;10199;48.850;8.924;2024-02-21T18:17:42;6.10;;;3.97;;
20078;SDS011;10199;48.850;8.924;2024-02-21T18:20:30;5.07;;;3.50;;
20078;SDS011;10199;48.850;8.924;2024-02-21T18:23:19;5.10;;;3.90;;
20078;SDS011;10199;48.850;8.924;2024-02-21T18:26:07;4.00;;;2.70;;
20078;SDS011;10199;48.850;8.924;2024-02-21T18:28:55;4.40;;;2.97;;
20078;SDS011;10199;48.850;8.924;2024-02-21T18:31:44;4.50;;;3.00;;
20078;SDS011;10199;48.850;8.924;2024-02-21T18:34:32;5.23;;;3.37;;
20078;SDS011;10199;48.850;8.924;2024-02-21T18:37:21;5.33;;;2.90;;
20078;SDS011;10199;48.850;8.924;2024-02-21T18:40:12;4.37;;;2.77;;
20078;SDS011;10199;48.850;8.924;2024-02-21T18:43:01;20.43;;;16.10;;
20078;SDS011;10199;48.850;8.924;2024-02-21T18:45:50;9.43;;;5.80;;
20078;SDS011;10199;48.850;8.924;2024-02-21T18:48:39;10.23;;;7.33;;
20078;SDS011;10199;48.850;8.924;2024-02-21T18:51:32;7.50;;;3.97;;
20078;SDS011;10199;48.850;8.924;2024-02-21T18:54:21;8.60;;;5.67;;
20078;SDS011;10199;48.850;8.924;2024-02-21T18:57:11;5.83;;;3.73;;
20078;SDS011;10199;48.850;8.924;2024-02-21T19:00:02;5.23;;;4.73;;
20078;SDS011;10199;48.850;8.924;2024-02-21T19:02:54;4.80;;;2.60;;
20078;SDS011;10199;48.850;8.924;2024-02-21T19:05:42;4.67;;;2.90;;
20078;SDS011;10199;48.850;8.924;2024-02-21T19:08:30;5.50;;;3.33;;
20078;SDS011;10199;48.850;8.924;2024-02-21T19:11:18;3.37;;;2.30;;
20078;SDS011;10199;48.850;8.924;2024-02-21T19:14:08;2.40;;;1.90;;
20078;SDS011;10199;48.850;8.924;2024-02-21T19:16:57;2.43;;;1.33;;
20078;SDS011;10199;48.850;8.924;2024-02-21T19:19:47;1.83;;;1.13;;
20078;SDS011;10199;48.850;8.924;2024-02-21T19:22:36;1.63;;;1.43;;
20078;SDS011;10199;48.850;8.924;2024-02-21T19:25:26;1.90;;;1.30;;
20078;SDS011;10199;48.850;8.924;2024-02-21T19:28:14;1.70;;;1.00;;
20078;SDS011;10199;48.850;8.924;2024-02-21T19:31:06;1.20;;;1.03;;
20078;SDS011;10199;48.850;8.924;2024-02-21T19:33:54;1.50;;;1.37;;
20078;SDS011;10199;48.850;8.924;2024-02-21T19:36:42;2.53;;;1.60;;
20078;SDS011;10199;48.850;8.924;2024-02-21T19:39:31;1.83;;;1.43;;
20078;SDS011;10199;48.850;8.924;2024-02-21T19:42:19;2.37;;;1.70;;
20078;SDS011;10199;48.850;8.924;2024-02-21T19:45:08;1.70;;;1.40;;
20078;SDS011;10199;48.850;8.924;2024-02-21T19:47:58;2.80;;;1.60;;
20078;SDS011;10199;48.850;8.924;2024-02-21T19:50:46;1.40;;;1.30;;
20078;SDS011;10199;48.850;8.924;2024-02-21T19:53:34;2.00;;;1.23;;
20078;SDS011;10199;48.850;8.924;2024-02-21T19:56:23;2.43;;;1.50;;
20078;SDS011;10199;48.850;8.924;2024-02-21T19:59:11;2.20;;;1.40;;
20078;SDS011;10199;48.850;8.924;2024-02-21T20:01:59;2.60;;;1.27;;
20078;SDS011;10199;48.850;8.924;2024-02-21T20:11:18;1.70;;;1.37;;
20078;SDS011;10199;48.850;8.924;2024-02-21T20:14:10;1.97;;;1.70;;
20078;SDS011;10199;48.850;8.924;2024-02-21T20:16:58;2.00;;;1.80;;
20078;SDS011;10199;48.850;8.924;2024-02-21T20:19:53;1.50;;;1.23;;
20078;SDS011;10199;48.850;8.924;2024-02-21T20:22:44;1.47;;;1.00;;
20078;SDS011;10199;48.850;8.924;2024-02-21T20:25:47;1.63;;;1.20;;
20078;SDS011;10199;48.850;8.924;2024-02-21T20:28:39;1.80;;;1.00;;
20078;SDS011;10199;48.850;8.924;2024-02-21T20:31:36;1.87;;;1.30;;
20078;SDS011;10199;48.850;8.924;2024-02-21T20:34:25;1.00;;;0.80;;
20078;SDS011;10199;48.850;8.924;2024-02-21T20:37:19;1.07;;;0.90;;
20078;SDS011;10199;48.850;8.924;2024-02-21T20:43:57;0.80;;;0.80;;
20078;SDS011;10199;48.850;8.924;2024-02-21T20:46:45;1.23;;;0.80;;
20078;SDS011;10199;48.850;8.924;2024-02-21T20:49:58;1.67;;;0.60;;
20078;SDS011;10199;48.850;8.924;2024-02-21T20:53:15;0.97;;;0.57;;
20078;SDS011;10199;48.850;8.924;2024-02-21T20:59:37;0.90;;;0.40;;
20078;SDS011;10199;48.850;8.924;2024-02-21T21:10:06;0.60;;;0.50;;
20078;SDS011;10199;48.850;8.924;2024-02-21T21:13:41;1.07;;;0.50;;
20078;SDS011;10199;48.850;8.924;2024-02-21T21:16:32;2.00;;;1.03;;
20078;SDS011;10199;48.850;8.924;2024-02-21T21:19:24;0.47;;;0.27;;
20078;SDS011;10199;48.850;8.924;2024-02-21T21:25:37;0.60;;;0.37;;
20078;SDS011;10199;48.850;8.924;2024-02-21T21:28:53;1.63;;;0.67;;
20078;SDS011;10199;48.850;8.924;2024-02-21T21:40:42;1.00;;;0.50;;
20078;SDS011;10199;48.850;8.924;2024-02-21T21:43:33;1.67;;;0.53;;
20078;SDS011;10199;48.850;8.924;2024-02-21T21:46:24;0.50;;;0.50;;
20078;SDS011;10199;48.850;8.924;2024-02-21T21:49:16;0.50;;;0.50;;
20078;SDS011;10199;48.850;8.924;2024-02-21T21:52:04;0.77;;;0.60;;
20078;SDS011;10199;48.850;8.924;2024-02-21T21:54:54;0.77;;;0.70;;
20078;SDS011;10199;48.850;8.924;2024-02-21T21:57:44;1.30;;;0.60;;
20078;SDS011;10199;48.850;8.924;2024-02-21T22:00:33;0.80;;;0.60;;
20078;SDS011;10199;48.850;8.924;2024-02-21T22:03:52;1.50;;;0.50;;
20078;SDS011;10199;48.850;8.924;2024-02-21T22:07:00;1.10;;;0.70;;
20078;SDS011;10199;48.850;8.924;2024-02-21T22:09:48;0.63;;;0.50;;
20078;SDS011;10199;48.850;8.924;2024-02-21T22:12:37;0.50;;;0.50;;
20078;SDS011;10199;48.850;8.924;2024-02-21T22:15:26;1.70;;;0.70;;
20078;SDS011;10199;48.850;8.924;2024-02-21T22:18:14;0.50;;;0.50;;
20078;SDS011;10199;48.850;8.924;2024-02-21T22:21:04;1.23;;;0.50;;
20078;SDS011;10199;48.850;8.924;2024-02-21T22:23:54;1.27;;;0.70;;
20078;SDS011;10199;48.850;8.924;2024-02-21T22:26:42;0.77;;;0.50;;
20078;SDS011;10199;48.850;8.924;2024-02-21T22:29:31;1.67;;;0.50;;
20078;SDS011;10199;48.850;8.924;2024-02-21T22:32:20;0.60;;;0.53;;
20078;SDS011;10199;48.850;8.924;2024-02-21T22:35:08;0.70;;;0.60;;
20078;SDS011;10199;48.850;8.924;2024-02-21T22:37:58;1.30;;;0.60;;
20078;SDS011;10199;48.850;8.924;2024-02-21T22:40:49;1.87;;;0.60;;
20078;SDS011;10199;48.850;8.924;2024-02-21T22:43:39;1.00;;;0.90;;
20078;SDS011;10199;48.850;8.924;2024-02-21T22:46:27;0.83;;;0.80;;
20078;SDS011;10199;48.850;8.924;2024-02-21T22:49:15;0.70;;;0.60;;
20078;SDS011;10199;48.850;8.924;2024-02-21T22:52:04;0.53;;;0.43;;
20078;SDS011;10199;48.850;8.924;2024-02-21T22:54:55;0.43;;;0.40;;
20078;SDS011;10199;48.850;8.924;2024-02-21T23:01:17;1.53;;;1.00;;
20078;SDS011;10199;48.850;8.924;2024-02-21T23:04:12;2.13;;;0.80;;
20078;SDS011;10199;48.850;8.924;2024-02-21T23:07:22;1.60;;;1.10;;
20078;SDS011;10199;48.850;8.924;2024-02-21T23:21:30;1.20;;;0.80;;
20078;SDS011;10199;48.850;8.924;2024-02-21T23:24:40;1.20;;;0.87;;
20078;SDS011;10199;48.850;8.924;2024-02-21T23:27:53;1.40;;;1.00;;
